sensor_id;sensor_type;location;lat;lon;timestamp;P1;durP1;ratioP1;P2;durP2;ratioP2
17714;SDS011;8977;50.902;4.314;2023-03-24T00:01:57;2.83;;;2.23;;
17714;SDS011;8977;50.902;4.314;2023-03-24T00:04:24;5.63;;;2.37;;
17714;SDS011;8977;50.902;4.314;2023-03-24T00:06:51;4.47;;;2.90;;
17714;SDS011;8977;50.902;4.314;2023-03-24T00:09:19;5.13;;;2.77;;
17714;SDS011;8977;50.902;4.314;2023-03-24T00:11:46;6.73;;;2.90;;
17714;SDS011;8977;50.902;4.314;2023-03-24T00:14:14;5.33;;;2.70;;
17714;SDS011;8977;50.902;4.314;2023-03-24T00:16:42;5.57;;;2.73;;
17714;SDS011;8977;50.902;4.314;2023-03-24T00:19:11;4.40;;;2.60;;
17714;SDS011;8977;50.902;4.314;2023-03-24T00:21:39;3.83;;;2.67;;
17714;SDS011;8977;50.902;4.314;2023-03-24T00:24:07;4.50;;;2.30;;
17714;SDS011;8977;50.902;4.314;2023-03-24T00:26:36;3.80;;;2.33;;
17714;SDS011;8977;50.902;4.314;2023-03-24T00:29:04;2.70;;;2.10;;
17714;SDS011;8977;50.902;4.314;2023-03-24T00:31:34;3.00;;;2.20;;
17714;SDS011;8977;50.902;4.314;2023-03-24T00:34:04;2.33;;;2.07;;
17714;SDS011;8977;50.902;4.314;2023-03-24T00:36:33;3.83;;;2.50;;
17714;SDS011;8977;50.902;4.314;2023-03-24T00:39:00;6.53;;;2.57;;
17714;SDS011;8977;50.902;4.314;2023-03-24T00:41:29;4.17;;;2.20;;
17714;SDS011;8977;50.902;4.314;2023-03-24T00:43:56;3.50;;;2.33;;
17714;SDS011;8977;50.902;4.314;2023-03-24T00:46:25;3.97;;;2.53;;
17714;SDS011;8977;50.902;4.314;2023-03-24T00:48:57;4.20;;;2.33;;
17714;SDS011;8977;50.902;4.314;2023-03-24T00:51:30;4.33;;;2.63;;
17714;SDS011;8977;50.902;4.314;2023-03-24T00:53:59;3.17;;;2.17;;
17714;SDS011;8977;50.902;4.314;2023-03-24T00:56:27;4.10;;;2.63;;
17714;SDS011;8977;50.902;4.314;2023-03-24T00:58:56;3.43;;;2.17;;
17714;SDS011;8977;50.902;4.314;2023-03-24T01:01:26;3.77;;;2.20;;
17714;SDS011;8977;50.902;4.314;2023-03-24T01:03:59;4.70;;;2.37;;
17714;SDS011;8977;50.902;4.314;2023-03-24T01:06:27;2.20;;;2.00;;
17714;SDS011;8977;50.902;4.314;2023-03-24T01:08:54;3.37;;;2.17;;
17714;SDS011;8977;50.902;4.314;2023-03-24T01:11:21;3.13;;;1.93;;
17714;SDS011;8977;50.902;4.314;2023-03-24T01:13:50;3.10;;;2.23;;
17714;SDS011;8977;50.902;4.314;2023-03-24T01:16:18;3.13;;;2.20;;
17714;SDS011;8977;50.902;4.314;2023-03-24T01:18:49;3.23;;;1.90;;
17714;SDS011;8977;50.902;4.314;2023-03-24T01:21:18;2.97;;;2.03;;
17714;SDS011;8977;50.902;4.314;2023-03-24T01:23:45;2.73;;;2.13;;
17714;SDS011;8977;50.902;4.314;2023-03-24T01:26:12;3.37;;;2.50;;
17714;SDS011;8977;50.902;4.314;2023-03-24T01:28:39;3.73;;;2.20;;
17714;SDS011;8977;50.902;4.314;2023-03-24T01:31:08;2.90;;;2.13;;
17714;SDS011;8977;50.902;4.314;2023-03-24T01:33:36;2.77;;;2.57;;
17714;SDS011;8977;50.902;4.314;2023-03-24T01:36:04;3.27;;;2.20;;
17714;SDS011;8977;50.902;4.314;2023-03-24T01:38:33;4.30;;;2.47;;
17714;SDS011;8977;50.902;4.314;2023-03-24T01:41:00;2.47;;;2.20;;
17714;SDS011;8977;50.902;4.314;2023-03-24T01:43:29;3.63;;;2.67;;
17714;SDS011;8977;50.902;4.314;2023-03-24T01:46:00;2.87;;;2.53;;
17714;SDS011;8977;50.902;4.314;2023-03-24T01:48:34;3.80;;;2.53;;
17714;SDS011;8977;50.902;4.314;2023-03-24T01:51:04;3.00;;;2.30;;
17714;SDS011;8977;50.902;4.314;2023-03-24T01:53:38;2.60;;;2.40;;
17714;SDS011;8977;50.902;4.314;2023-03-24T01:56:08;3.60;;;2.37;;
17714;SDS011;8977;50.902;4.314;2023-03-24T01:58:37;3.87;;;2.53;;
17714;SDS011;8977;50.902;4.314;2023-03-24T02:01:06;3.33;;;2.00;;
17714;SDS011;8977;50.902;4.314;2023-03-24T02:03:34;3.17;;;2.50;;
17714;SDS011;8977;50.902;4.314;2023-03-24T02:06:04;2.90;;;2.03;;
17714;SDS011;8977;50.902;4.314;2023-03-24T02:08:34;3.53;;;2.20;;
17714;SDS011;8977;50.902;4.314;2023-03-24T02:11:06;2.27;;;2.07;;
17714;SDS011;8977;50.902;4.314;2023-03-24T02:13:34;1.70;;;1.10;;
17714;SDS011;8977;50.902;4.314;2023-03-24T02:16:05;1.33;;;1.00;;
17714;SDS011;8977;50.902;4.314;2023-03-24T02:18:41;1.40;;;0.80;;
17714;SDS011;8977;50.902;4.314;2023-03-24T02:27:26;2.43;;;0.87;;
17714;SDS011;8977;50.902;4.314;2023-03-24T02:30:25;3.27;;;1.00;;
17714;SDS011;8977;50.902;4.314;2023-03-24T02:39:19;3.90;;;1.30;;
17714;SDS011;8977;50.902;4.314;2023-03-24T02:42:10;3.10;;;0.80;;
17714;SDS011;8977;50.902;4.314;2023-03-24T02:44:47;2.27;;;1.07;;
17714;SDS011;8977;50.902;4.314;2023-03-24T02:47:22;2.03;;;0.87;;
17714;SDS011;8977;50.902;4.314;2023-03-24T02:49:54;2.00;;;0.90;;
17714;SDS011;8977;50.902;4.314;2023-03-24T02:52:30;3.00;;;1.33;;
17714;SDS011;8977;50.902;4.314;2023-03-24T02:55:03;3.50;;;0.83;;
17714;SDS011;8977;50.902;4.314;2023-03-24T02:57:36;3.00;;;1.00;;
17714;SDS011;8977;50.902;4.314;2023-03-24T03:00:09;1.63;;;1.00;;
17714;SDS011;8977;50.902;4.314;2023-03-24T03:02:42;3.77;;;1.00;;
17714;SDS011;8977;50.902;4.314;2023-03-24T03:05:13;2.17;;;0.97;;
17714;SDS011;8977;50.902;4.314;2023-03-24T03:07:44;2.70;;;1.00;;
17714;SDS011;8977;50.902;4.314;2023-03-24T03:10:17;2.83;;;1.07;;
17714;SDS011;8977;50.902;4.314;2023-03-24T03:12:48;3.83;;;1.20;;
17714;SDS011;8977;50.902;4.314;2023-03-24T03:15:20;4.63;;;1.20;;
17714;SDS011;8977;50.902;4.314;2023-03-24T03:17:51;1.70;;;0.90;;
17714;SDS011;8977;50.902;4.314;2023-03-24T03:20:23;2.03;;;1.20;;
17714;SDS011;8977;50.902;4.314;2023-03-24T03:22:55;3.93;;;1.10;;
17714;SDS011;8977;50.902;4.314;2023-03-24T03:25:28;2.97;;;1.20;;
17714;SDS011;8977;50.902;4.314;2023-03-24T03:27:58;6.47;;;1.77;;
17714;SDS011;8977;50.902;4.314;2023-03-24T03:30:29;4.27;;;1.37;;
17714;SDS011;8977;50.902;4.314;2023-03-24T03:33:03;5.00;;;1.37;;
17714;SDS011;8977;50.902;4.314;2023-03-24T03:35:34;4.73;;;1.30;;
17714;SDS011;8977;50.902;4.314;2023-03-24T03:38:06;5.40;;;1.40;;
17714;SDS011;8977;50.902;4.314;2023-03-24T03:40:45;4.13;;;1.30;;
17714;SDS011;8977;50.902;4.314;2023-03-24T03:43:18;6.60;;;1.40;;
17714;SDS011;8977;50.902;4.314;2023-03-24T03:45:45;5.37;;;1.40;;
17714;SDS011;8977;50.902;4.314;2023-03-24T03:48:12;6.30;;;1.60;;
17714;SDS011;8977;50.902;4.314;2023-03-24T03:50:42;6.70;;;1.60;;
17714;SDS011;8977;50.902;4.314;2023-03-24T03:53:10;4.90;;;1.60;;
17714;SDS011;8977;50.902;4.314;2023-03-24T03:55:40;2.97;;;1.50;;
17714;SDS011;8977;50.902;4.314;2023-03-24T03:58:08;7.70;;;1.83;;
17714;SDS011;8977;50.902;4.314;2023-03-24T04:00:36;5.67;;;1.40;;
17714;SDS011;8977;50.902;4.314;2023-03-24T04:03:11;6.40;;;1.73;;
17714;SDS011;8977;50.902;4.314;2023-03-24T04:05:56;7.90;;;1.80;;
17714;SDS011;8977;50.902;4.314;2023-03-24T04:08:31;5.67;;;1.80;;
17714;SDS011;8977;50.902;4.314;2023-03-24T04:14:16;6.97;;;1.53;;
17714;SDS011;8977;50.902;4.314;2023-03-24T04:17:04;4.90;;;1.50;;
17714;SDS011;8977;50.902;4.314;2023-03-24T04:19:43;3.13;;;1.63;;
17714;SDS011;8977;50.902;4.314;2023-03-24T04:22:23;5.23;;;1.50;;
17714;SDS011;8977;50.902;4.314;2023-03-24T04:24:54;6.27;;;1.60;;
17714;SDS011;8977;50.902;4.314;2023-03-24T04:27:27;6.77;;;2.50;;
17714;SDS011;8977;50.902;4.314;2023-03-24T04:30:06;5.53;;;1.60;;
17714;SDS011;8977;50.902;4.314;2023-03-24T04:32:42;9.27;;;1.90;;
17714;SDS011;8977;50.902;4.314;2023-03-24T04:35:16;5.60;;;1.40;;
17714;SDS011;8977;50.902;4.314;2023-03-24T04:37:55;5.30;;;1.70;;
17714;SDS011;8977;50.902;4.314;2023-03-24T04:40:26;8.57;;;2.00;;
17714;SDS011;8977;50.902;4.314;2023-03-24T04:42:57;6.27;;;2.17;;
17714;SDS011;8977;50.902;4.314;2023-03-24T04:45:29;7.53;;;2.07;;
17714;SDS011;8977;50.902;4.314;2023-03-24T04:47:58;6.13;;;1.93;;
17714;SDS011;8977;50.902;4.314;2023-03-24T04:50:28;6.17;;;2.27;;
17714;SDS011;8977;50.902;4.314;2023-03-24T04:52:56;6.50;;;1.77;;
17714;SDS011;8977;50.902;4.314;2023-03-24T04:55:43;6.93;;;2.17;;
17714;SDS011;8977;50.902;4.314;2023-03-24T04:58:20;7.27;;;2.00;;
17714;SDS011;8977;50.902;4.314;2023-03-24T05:00:49;6.83;;;2.00;;
17714;SDS011;8977;50.902;4.314;2023-03-24T05:03:17;6.57;;;2.10;;
17714;SDS011;8977;50.902;4.314;2023-03-24T05:05:45;8.50;;;2.03;;
17714;SDS011;8977;50.902;4.314;2023-03-24T05:08:14;8.07;;;2.10;;
17714;SDS011;8977;50.902;4.314;2023-03-24T05:10:41;7.47;;;1.97;;
17714;SDS011;8977;50.902;4.314;2023-03-24T05:13:09;8.50;;;2.00;;
17714;SDS011;8977;50.902;4.314;2023-03-24T05:15:37;7.53;;;2.17;;
17714;SDS011;8977;50.902;4.314;2023-03-24T05:18:06;7.13;;;2.37;;
17714;SDS011;8977;50.902;4.314;2023-03-24T05:20:32;5.27;;;1.77;;
17714;SDS011;8977;50.902;4.314;2023-03-24T05:23:00;9.40;;;2.17;;
17714;SDS011;8977;50.902;4.314;2023-03-24T05:25:27;12.30;;;1.90;;
17714;SDS011;8977;50.902;4.314;2023-03-24T05:27:54;5.90;;;1.97;;
17714;SDS011;8977;50.902;4.314;2023-03-24T05:30:21;8.63;;;2.30;;
17714;SDS011;8977;50.902;4.314;2023-03-24T05:32:48;11.23;;;2.57;;
17714;SDS011;8977;50.902;4.314;2023-03-24T05:35:16;6.37;;;1.90;;
17714;SDS011;8977;50.902;4.314;2023-03-24T05:37:44;8.20;;;1.80;;
17714;SDS011;8977;50.902;4.314;2023-03-24T05:40:11;8.27;;;2.23;;
17714;SDS011;8977;50.902;4.314;2023-03-24T05:42:39;8.80;;;1.90;;
17714;SDS011;8977;50.902;4.314;2023-03-24T05:45:07;6.87;;;2.10;;
17714;SDS011;8977;50.902;4.314;2023-03-24T05:47:35;9.43;;;2.20;;
17714;SDS011;8977;50.902;4.314;2023-03-24T05:50:02;9.27;;;2.20;;
17714;SDS011;8977;50.902;4.314;2023-03-24T05:52:31;8.90;;;2.20;;
17714;SDS011;8977;50.902;4.314;2023-03-24T05:54:59;9.33;;;2.17;;
17714;SDS011;8977;50.902;4.314;2023-03-24T05:57:27;9.00;;;2.27;;
17714;SDS011;8977;50.902;4.314;2023-03-24T05:59:54;11.03;;;2.30;;
17714;SDS011;8977;50.902;4.314;2023-03-24T06:02:21;4.40;;;1.70;;
17714;SDS011;8977;50.902;4.314;2023-03-24T06:04:49;11.47;;;2.40;;
17714;SDS011;8977;50.902;4.314;2023-03-24T06:07:17;8.27;;;2.23;;
17714;SDS011;8977;50.902;4.314;2023-03-24T06:09:45;5.63;;;1.87;;
17714;SDS011;8977;50.902;4.314;2023-03-24T06:12:16;7.67;;;2.17;;
17714;SDS011;8977;50.902;4.314;2023-03-24T06:14:45;8.60;;;2.13;;
17714;SDS011;8977;50.902;4.314;2023-03-24T06:17:12;9.77;;;2.60;;
17714;SDS011;8977;50.902;4.314;2023-03-24T06:19:40;8.07;;;2.30;;
17714;SDS011;8977;50.902;4.314;2023-03-24T06:22:14;8.10;;;2.40;;
17714;SDS011;8977;50.902;4.314;2023-03-24T06:24:41;7.23;;;2.37;;
17714;SDS011;8977;50.902;4.314;2023-03-24T06:27:09;5.63;;;1.87;;
17714;SDS011;8977;50.902;4.314;2023-03-24T06:29:38;10.73;;;2.00;;
17714;SDS011;8977;50.902;4.314;2023-03-24T06:32:06;12.00;;;2.17;;
17714;SDS011;8977;50.902;4.314;2023-03-24T06:34:33;9.33;;;2.43;;
17714;SDS011;8977;50.902;4.314;2023-03-24T06:37:00;10.63;;;2.80;;
17714;SDS011;8977;50.902;4.314;2023-03-24T06:39:26;7.50;;;2.13;;
17714;SDS011;8977;50.902;4.314;2023-03-24T06:41:53;10.13;;;2.50;;
17714;SDS011;8977;50.902;4.314;2023-03-24T06:44:21;10.27;;;2.47;;
17714;SDS011;8977;50.902;4.314;2023-03-24T06:46:48;8.50;;;2.17;;
17714;SDS011;8977;50.902;4.314;2023-03-24T06:49:15;5.43;;;1.50;;
17714;SDS011;8977;50.902;4.314;2023-03-24T06:51:42;8.27;;;2.00;;
17714;SDS011;8977;50.902;4.314;2023-03-24T06:54:09;7.20;;;2.17;;
17714;SDS011;8977;50.902;4.314;2023-03-24T06:56:36;6.33;;;1.80;;
17714;SDS011;8977;50.902;4.314;2023-03-24T06:59:03;12.53;;;2.70;;
17714;SDS011;8977;50.902;4.314;2023-03-24T07:01:31;11.33;;;2.30;;
17714;SDS011;8977;50.902;4.314;2023-03-24T07:04:00;8.17;;;2.50;;
17714;SDS011;8977;50.902;4.314;2023-03-24T07:06:27;9.03;;;2.10;;
17714;SDS011;8977;50.902;4.314;2023-03-24T07:08:54;9.00;;;2.10;;
17714;SDS011;8977;50.902;4.314;2023-03-24T07:11:21;8.97;;;2.10;;
17714;SDS011;8977;50.902;4.314;2023-03-24T07:13:49;6.10;;;2.00;;
17714;SDS011;8977;50.902;4.314;2023-03-24T07:16:16;5.63;;;1.80;;
17714;SDS011;8977;50.902;4.314;2023-03-24T07:18:44;8.40;;;2.33;;
17714;SDS011;8977;50.902;4.314;2023-03-24T07:21:11;8.93;;;2.40;;
17714;SDS011;8977;50.902;4.314;2023-03-24T07:23:38;7.70;;;1.87;;
17714;SDS011;8977;50.902;4.314;2023-03-24T07:26:04;8.73;;;2.50;;
17714;SDS011;8977;50.902;4.314;2023-03-24T07:28:31;9.67;;;2.30;;
17714;SDS011;8977;50.902;4.314;2023-03-24T07:31:00;8.80;;;2.07;;
17714;SDS011;8977;50.902;4.314;2023-03-24T07:33:27;6.83;;;1.97;;
17714;SDS011;8977;50.902;4.314;2023-03-24T07:35:56;7.13;;;2.03;;
17714;SDS011;8977;50.902;4.314;2023-03-24T07:38:23;6.33;;;2.40;;
17714;SDS011;8977;50.902;4.314;2023-03-24T07:40:50;7.57;;;2.43;;
17714;SDS011;8977;50.902;4.314;2023-03-24T07:43:17;7.47;;;2.30;;
17714;SDS011;8977;50.902;4.314;2023-03-24T07:45:44;11.10;;;2.27;;
17714;SDS011;8977;50.902;4.314;2023-03-24T07:48:11;9.33;;;2.37;;
17714;SDS011;8977;50.902;4.314;2023-03-24T07:50:38;8.60;;;2.10;;
17714;SDS011;8977;50.902;4.314;2023-03-24T07:53:06;8.17;;;2.50;;
17714;SDS011;8977;50.902;4.314;2023-03-24T07:55:34;6.43;;;2.20;;
17714;SDS011;8977;50.902;4.314;2023-03-24T07:58:02;8.53;;;2.10;;
17714;SDS011;8977;50.902;4.314;2023-03-24T08:00:29;9.57;;;2.20;;
17714;SDS011;8977;50.902;4.314;2023-03-24T08:02:57;7.67;;;2.33;;
17714;SDS011;8977;50.902;4.314;2023-03-24T08:05:25;9.53;;;2.27;;
17714;SDS011;8977;50.902;4.314;2023-03-24T08:07:54;6.23;;;2.27;;
17714;SDS011;8977;50.902;4.314;2023-03-24T08:10:24;9.77;;;2.97;;
17714;SDS011;8977;50.902;4.314;2023-03-24T08:12:52;13.30;;;2.40;;
17714;SDS011;8977;50.902;4.314;2023-03-24T08:15:18;9.30;;;2.70;;
17714;SDS011;8977;50.902;4.314;2023-03-24T08:17:46;8.90;;;2.70;;
17714;SDS011;8977;50.902;4.314;2023-03-24T08:20:13;8.60;;;2.50;;
17714;SDS011;8977;50.902;4.314;2023-03-24T08:22:41;7.97;;;2.10;;
17714;SDS011;8977;50.902;4.314;2023-03-24T08:25:09;10.03;;;2.30;;
17714;SDS011;8977;50.902;4.314;2023-03-24T08:27:38;6.17;;;2.30;;
17714;SDS011;8977;50.902;4.314;2023-03-24T08:30:09;9.67;;;2.17;;
17714;SDS011;8977;50.902;4.314;2023-03-24T08:32:41;7.60;;;2.30;;
17714;SDS011;8977;50.902;4.314;2023-03-24T08:35:09;7.83;;;2.30;;
17714;SDS011;8977;50.902;4.314;2023-03-24T08:37:38;5.70;;;1.87;;
17714;SDS011;8977;50.902;4.314;2023-03-24T08:40:06;9.13;;;2.10;;
17714;SDS011;8977;50.902;4.314;2023-03-24T08:42:40;7.93;;;2.20;;
17714;SDS011;8977;50.902;4.314;2023-03-24T08:45:07;6.93;;;2.23;;
17714;SDS011;8977;50.902;4.314;2023-03-24T08:47:36;8.50;;;2.30;;
17714;SDS011;8977;50.902;4.314;2023-03-24T08:50:03;11.40;;;2.70;;
17714;SDS011;8977;50.902;4.314;2023-03-24T08:52:31;8.80;;;2.20;;
17714;SDS011;8977;50.902;4.314;2023-03-24T08:54:58;6.87;;;2.20;;
17714;SDS011;8977;50.902;4.314;2023-03-24T08:57:25;6.63;;;2.00;;
17714;SDS011;8977;50.902;4.314;2023-03-24T08:59:53;6.67;;;2.33;;
17714;SDS011;8977;50.902;4.314;2023-03-24T09:02:20;10.43;;;2.03;;
17714;SDS011;8977;50.902;4.314;2023-03-24T09:04:46;8.13;;;2.17;;
17714;SDS011;8977;50.902;4.314;2023-03-24T09:07:17;9.20;;;2.13;;
17714;SDS011;8977;50.902;4.314;2023-03-24T09:09:44;6.43;;;2.00;;
17714;SDS011;8977;50.902;4.314;2023-03-24T09:12:11;8.07;;;2.43;;
17714;SDS011;8977;50.902;4.314;2023-03-24T09:14:38;6.70;;;2.40;;
17714;SDS011;8977;50.902;4.314;2023-03-24T09:17:06;6.03;;;1.97;;
17714;SDS011;8977;50.902;4.314;2023-03-24T09:19:33;7.53;;;1.93;;
17714;SDS011;8977;50.902;4.314;2023-03-24T09:22:00;6.93;;;2.20;;
17714;SDS011;8977;50.902;4.314;2023-03-24T09:24:27;8.27;;;2.10;;
17714;SDS011;8977;50.902;4.314;2023-03-24T09:26:54;6.47;;;2.00;;
17714;SDS011;8977;50.902;4.314;2023-03-24T09:29:20;7.30;;;2.30;;
17714;SDS011;8977;50.902;4.314;2023-03-24T09:31:47;10.40;;;2.90;;
17714;SDS011;8977;50.902;4.314;2023-03-24T09:34:15;8.43;;;2.67;;
17714;SDS011;8977;50.902;4.314;2023-03-24T09:36:42;9.23;;;2.83;;
17714;SDS011;8977;50.902;4.314;2023-03-24T09:39:09;11.17;;;2.77;;
17714;SDS011;8977;50.902;4.314;2023-03-24T09:41:36;8.33;;;2.43;;
17714;SDS011;8977;50.902;4.314;2023-03-24T09:44:04;5.33;;;2.40;;
17714;SDS011;8977;50.902;4.314;2023-03-24T09:46:38;9.10;;;2.60;;
17714;SDS011;8977;50.902;4.314;2023-03-24T09:49:10;10.67;;;2.10;;
17714;SDS011;8977;50.902;4.314;2023-03-24T09:51:43;7.27;;;2.10;;
17714;SDS011;8977;50.902;4.314;2023-03-24T09:54:13;7.03;;;2.40;;
17714;SDS011;8977;50.902;4.314;2023-03-24T09:56:44;6.00;;;1.87;;
17714;SDS011;8977;50.902;4.314;2023-03-24T09:59:14;5.27;;;2.07;;
17714;SDS011;8977;50.902;4.314;2023-03-24T10:01:43;9.00;;;2.03;;
17714;SDS011;8977;50.902;4.314;2023-03-24T10:04:12;8.80;;;2.10;;
17714;SDS011;8977;50.902;4.314;2023-03-24T10:06:40;9.13;;;2.37;;
17714;SDS011;8977;50.902;4.314;2023-03-24T10:09:16;7.67;;;1.80;;
17714;SDS011;8977;50.902;4.314;2023-03-24T10:11:50;5.77;;;1.77;;
17714;SDS011;8977;50.902;4.314;2023-03-24T10:14:25;6.37;;;2.10;;
17714;SDS011;8977;50.902;4.314;2023-03-24T10:17:02;8.87;;;2.07;;
17714;SDS011;8977;50.902;4.314;2023-03-24T10:19:39;9.00;;;1.77;;
17714;SDS011;8977;50.902;4.314;2023-03-24T10:22:15;7.07;;;1.90;;
17714;SDS011;8977;50.902;4.314;2023-03-24T10:24:48;10.70;;;2.73;;
17714;SDS011;8977;50.902;4.314;2023-03-24T10:27:22;7.73;;;2.30;;
17714;SDS011;8977;50.902;4.314;2023-03-24T10:29:53;6.60;;;1.80;;
17714;SDS011;8977;50.902;4.314;2023-03-24T10:32:28;10.03;;;2.00;;
17714;SDS011;8977;50.902;4.314;2023-03-24T10:34:59;9.97;;;2.77;;
17714;SDS011;8977;50.902;4.314;2023-03-24T10:37:34;9.20;;;1.83;;
17714;SDS011;8977;50.902;4.314;2023-03-24T10:40:06;8.93;;;2.20;;
17714;SDS011;8977;50.902;4.314;2023-03-24T10:42:42;7.43;;;2.10;;
17714;SDS011;8977;50.902;4.314;2023-03-24T10:45:11;7.87;;;2.00;;
17714;SDS011;8977;50.902;4.314;2023-03-24T10:47:39;6.47;;;1.67;;
17714;SDS011;8977;50.902;4.314;2023-03-24T10:50:08;8.30;;;1.87;;
17714;SDS011;8977;50.902;4.314;2023-03-24T10:52:41;8.90;;;2.50;;
17714;SDS011;8977;50.902;4.314;2023-03-24T10:55:12;10.07;;;2.37;;
17714;SDS011;8977;50.902;4.314;2023-03-24T10:57:41;8.13;;;2.23;;
17714;SDS011;8977;50.902;4.314;2023-03-24T11:00:14;6.70;;;2.00;;
17714;SDS011;8977;50.902;4.314;2023-03-24T11:02:51;8.37;;;2.57;;
17714;SDS011;8977;50.902;4.314;2023-03-24T11:05:24;5.03;;;1.40;;
17714;SDS011;8977;50.902;4.314;2023-03-24T11:07:56;5.67;;;2.27;;
17714;SDS011;8977;50.902;4.314;2023-03-24T11:10:35;4.93;;;1.63;;
17714;SDS011;8977;50.902;4.314;2023-03-24T11:13:02;4.03;;;1.57;;
17714;SDS011;8977;50.902;4.314;2023-03-24T11:15:32;6.17;;;1.80;;
17714;SDS011;8977;50.902;4.314;2023-03-24T11:18:06;5.37;;;1.80;;
17714;SDS011;8977;50.902;4.314;2023-03-24T11:20:42;4.57;;;1.70;;
17714;SDS011;8977;50.902;4.314;2023-03-24T11:23:13;6.17;;;1.97;;
17714;SDS011;8977;50.902;4.314;2023-03-24T11:25:44;10.93;;;2.13;;
17714;SDS011;8977;50.902;4.314;2023-03-24T11:28:15;6.77;;;1.40;;
17714;SDS011;8977;50.902;4.314;2023-03-24T11:30:47;10.50;;;2.10;;
17714;SDS011;8977;50.902;4.314;2023-03-24T11:33:17;5.50;;;1.90;;
17714;SDS011;8977;50.902;4.314;2023-03-24T11:35:46;5.93;;;2.10;;
17714;SDS011;8977;50.902;4.314;2023-03-24T11:38:16;6.80;;;2.03;;
17714;SDS011;8977;50.902;4.314;2023-03-24T11:40:51;4.77;;;1.43;;
17714;SDS011;8977;50.902;4.314;2023-03-24T11:43:22;9.17;;;2.13;;
17714;SDS011;8977;50.902;4.314;2023-03-24T11:45:51;3.73;;;1.80;;
17714;SDS011;8977;50.902;4.314;2023-03-24T11:48:26;6.47;;;2.00;;
17714;SDS011;8977;50.902;4.314;2023-03-24T11:50:57;5.10;;;2.00;;
17714;SDS011;8977;50.902;4.314;2023-03-24T11:53:29;5.27;;;1.70;;
17714;SDS011;8977;50.902;4.314;2023-03-24T11:56:05;8.57;;;1.90;;
17714;SDS011;8977;50.902;4.314;2023-03-24T11:58:39;8.10;;;1.80;;
17714;SDS011;8977;50.902;4.314;2023-03-24T12:01:11;6.20;;;2.03;;
17714;SDS011;8977;50.902;4.314;2023-03-24T12:03:56;5.73;;;1.87;;
17714;SDS011;8977;50.902;4.314;2023-03-24T12:06:34;4.87;;;1.50;;
17714;SDS011;8977;50.902;4.314;2023-03-24T12:09:15;4.27;;;1.30;;
17714;SDS011;8977;50.902;4.314;2023-03-24T12:11:52;4.73;;;1.70;;
17714;SDS011;8977;50.902;4.314;2023-03-24T12:14:41;5.43;;;1.93;;
17714;SDS011;8977;50.902;4.314;2023-03-24T12:17:20;4.30;;;1.43;;
17714;SDS011;8977;50.902;4.314;2023-03-24T12:19:57;4.73;;;1.50;;
17714;SDS011;8977;50.902;4.314;2023-03-24T12:22:42;7.97;;;1.90;;
17714;SDS011;8977;50.902;4.314;2023-03-24T12:25:19;8.80;;;1.93;;
17714;SDS011;8977;50.902;4.314;2023-03-24T12:27:55;6.77;;;1.67;;
17714;SDS011;8977;50.902;4.314;2023-03-24T12:30:31;6.53;;;2.17;;
17714;SDS011;8977;50.902;4.314;2023-03-24T12:33:12;7.40;;;1.80;;
17714;SDS011;8977;50.902;4.314;2023-03-24T12:36:00;6.87;;;1.73;;
17714;SDS011;8977;50.902;4.314;2023-03-24T12:38:38;9.63;;;2.13;;
17714;SDS011;8977;50.902;4.314;2023-03-24T12:44:30;6.13;;;1.67;;
17714;SDS011;8977;50.902;4.314;2023-03-24T12:47:14;7.93;;;2.60;;
17714;SDS011;8977;50.902;4.314;2023-03-24T12:49:53;7.20;;;2.20;;
17714;SDS011;8977;50.902;4.314;2023-03-24T12:52:36;9.90;;;2.40;;
17714;SDS011;8977;50.902;4.314;2023-03-24T12:55:17;9.13;;;2.23;;
17714;SDS011;8977;50.902;4.314;2023-03-24T12:57:51;7.93;;;2.23;;
17714;SDS011;8977;50.902;4.314;2023-03-24T13:00:24;12.87;;;2.50;;
17714;SDS011;8977;50.902;4.314;2023-03-24T13:02:56;10.63;;;2.63;;
17714;SDS011;8977;50.902;4.314;2023-03-24T13:05:26;12.60;;;3.27;;
17714;SDS011;8977;50.902;4.314;2023-03-24T13:07:56;8.10;;;2.80;;
17714;SDS011;8977;50.902;4.314;2023-03-24T13:10:28;7.10;;;2.10;;
17714;SDS011;8977;50.902;4.314;2023-03-24T13:12:58;4.67;;;1.87;;
17714;SDS011;8977;50.902;4.314;2023-03-24T13:15:29;4.20;;;1.50;;
17714;SDS011;8977;50.902;4.314;2023-03-24T13:18:01;4.57;;;1.57;;
17714;SDS011;8977;50.902;4.314;2023-03-24T13:20:40;3.07;;;1.10;;
17714;SDS011;8977;50.902;4.314;2023-03-24T13:23:16;3.70;;;1.37;;
17714;SDS011;8977;50.902;4.314;2023-03-24T13:25:57;4.03;;;1.37;;
17714;SDS011;8977;50.902;4.314;2023-03-24T13:28:33;3.20;;;1.57;;
17714;SDS011;8977;50.902;4.314;2023-03-24T13:31:05;3.33;;;1.13;;
17714;SDS011;8977;50.902;4.314;2023-03-24T13:33:34;5.07;;;1.83;;
17714;SDS011;8977;50.902;4.314;2023-03-24T13:36:10;5.50;;;1.57;;
17714;SDS011;8977;50.902;4.314;2023-03-24T13:38:48;3.17;;;1.27;;
17714;SDS011;8977;50.902;4.314;2023-03-24T13:41:18;6.40;;;1.63;;
17714;SDS011;8977;50.902;4.314;2023-03-24T13:43:50;5.33;;;1.80;;
17714;SDS011;8977;50.902;4.314;2023-03-24T13:46:23;4.87;;;1.33;;
17714;SDS011;8977;50.902;4.314;2023-03-24T13:48:50;4.67;;;1.40;;
17714;SDS011;8977;50.902;4.314;2023-03-24T13:51:21;3.77;;;1.50;;
17714;SDS011;8977;50.902;4.314;2023-03-24T13:53:52;6.13;;;1.43;;
17714;SDS011;8977;50.902;4.314;2023-03-24T13:56:24;5.40;;;1.40;;
17714;SDS011;8977;50.902;4.314;2023-03-24T14:05:05;5.43;;;1.83;;
17714;SDS011;8977;50.902;4.314;2023-03-24T14:07:41;4.03;;;1.70;;
17714;SDS011;8977;50.902;4.314;2023-03-24T14:10:35;5.27;;;1.73;;
17714;SDS011;8977;50.902;4.314;2023-03-24T14:16:24;5.63;;;1.63;;
17714;SDS011;8977;50.902;4.314;2023-03-24T14:19:07;3.23;;;1.33;;
17714;SDS011;8977;50.902;4.314;2023-03-24T14:21:41;4.40;;;1.13;;
17714;SDS011;8977;50.902;4.314;2023-03-24T14:24:14;5.47;;;1.57;;
17714;SDS011;8977;50.902;4.314;2023-03-24T14:26:44;3.73;;;1.40;;
17714;SDS011;8977;50.902;4.314;2023-03-24T14:29:25;6.20;;;1.27;;
17714;SDS011;8977;50.902;4.314;2023-03-24T14:32:05;5.23;;;1.50;;
17714;SDS011;8977;50.902;4.314;2023-03-24T14:34:32;8.13;;;1.57;;
17714;SDS011;8977;50.902;4.314;2023-03-24T14:37:02;6.23;;;1.67;;
17714;SDS011;8977;50.902;4.314;2023-03-24T14:39:34;4.43;;;1.40;;
17714;SDS011;8977;50.902;4.314;2023-03-24T14:48:05;7.63;;;2.27;;
17714;SDS011;8977;50.902;4.314;2023-03-24T14:50:49;6.33;;;1.83;;
17714;SDS011;8977;50.902;4.314;2023-03-24T14:53:18;5.10;;;1.63;;
17714;SDS011;8977;50.902;4.314;2023-03-24T14:55:46;6.00;;;1.67;;
17714;SDS011;8977;50.902;4.314;2023-03-24T14:58:17;5.13;;;1.70;;
17714;SDS011;8977;50.902;4.314;2023-03-24T15:00:49;7.67;;;1.90;;
17714;SDS011;8977;50.902;4.314;2023-03-24T15:03:22;3.20;;;1.20;;
17714;SDS011;8977;50.902;4.314;2023-03-24T15:06:01;5.80;;;1.60;;
17714;SDS011;8977;50.902;4.314;2023-03-24T15:08:36;6.73;;;1.43;;
17714;SDS011;8977;50.902;4.314;2023-03-24T15:11:03;4.37;;;1.37;;
17714;SDS011;8977;50.902;4.314;2023-03-24T15:13:33;4.70;;;1.73;;
17714;SDS011;8977;50.902;4.314;2023-03-24T15:16:03;3.70;;;1.13;;
17714;SDS011;8977;50.902;4.314;2023-03-24T15:18:33;6.13;;;1.37;;
17714;SDS011;8977;50.902;4.314;2023-03-24T15:21:00;3.23;;;1.13;;
17714;SDS011;8977;50.902;4.314;2023-03-24T15:23:39;4.40;;;1.10;;
17714;SDS011;8977;50.902;4.314;2023-03-24T15:26:11;5.20;;;1.23;;
17714;SDS011;8977;50.902;4.314;2023-03-24T15:28:39;3.03;;;1.00;;
17714;SDS011;8977;50.902;4.314;2023-03-24T15:31:05;3.60;;;1.37;;
17714;SDS011;8977;50.902;4.314;2023-03-24T15:33:38;4.47;;;0.90;;
17714;SDS011;8977;50.902;4.314;2023-03-24T15:36:11;2.37;;;1.13;;
17714;SDS011;8977;50.902;4.314;2023-03-24T15:38:43;3.33;;;1.10;;
17714;SDS011;8977;50.902;4.314;2023-03-24T15:41:11;2.93;;;1.10;;
17714;SDS011;8977;50.902;4.314;2023-03-24T15:43:42;3.87;;;1.07;;
17714;SDS011;8977;50.902;4.314;2023-03-24T15:46:16;4.83;;;1.43;;
17714;SDS011;8977;50.902;4.314;2023-03-24T15:48:49;5.40;;;1.30;;
17714;SDS011;8977;50.902;4.314;2023-03-24T15:51:16;7.30;;;1.53;;
17714;SDS011;8977;50.902;4.314;2023-03-24T15:53:44;3.40;;;1.10;;
17714;SDS011;8977;50.902;4.314;2023-03-24T15:56:17;5.70;;;1.23;;
17714;SDS011;8977;50.902;4.314;2023-03-24T15:58:50;4.40;;;1.10;;